ΕΜΥ, Εθνική Μετεωρολογική Υπηρεσία - Δελτία Καιρού, Προγνώσεις

ΑΕΡΟΝΑΥΤΙΛΙΑ

GREEK AIRPORTS CODES

TAF LGST 072300Z 0800/0809 33023G33KT 9999 FEW010 FEW018TCU BKN025 PROB30 TEMPO 0800/0806 5000 SNRA SCT008 FEW018TCU BKN020=

EUROPEAN AIRPORTS CODES

LFPO 080100Z 02003KT CAVOK M02/M04 Q1036 NOSIG=